createdAt,value
2016-11-11T00:00:20.389Z,0
2016-11-11T00:01:29.085Z,0
2016-11-11T00:02:37.785Z,0
2016-11-11T00:03:46.801Z,0
2016-11-11T00:04:55.800Z,0
2016-11-11T00:06:04.793Z,0
2016-11-11T00:07:14.119Z,0
2016-11-11T00:08:23.130Z,0
2016-11-11T00:09:32.731Z,0
2016-11-11T00:10:41.745Z,0
2016-11-11T00:11:50.755Z,0
2016-11-11T00:12:59.762Z,0
2016-11-11T00:14:08.819Z,0
2016-11-11T00:15:18.130Z,0
2016-11-11T00:16:27.124Z,0
2016-11-11T00:17:35.811Z,0
2016-11-11T00:18:44.827Z,0
2016-11-11T00:19:53.813Z,0
2016-11-11T00:21:02.499Z,0
2016-11-11T00:22:11.499Z,0
2016-11-11T00:23:20.517Z,0
2016-11-11T00:24:29.826Z,0
2016-11-11T00:25:39.431Z,0
2016-11-11T00:26:48.740Z,0
2016-11-11T00:27:58.037Z,0
2016-11-11T00:29:07.343Z,0
2016-11-11T00:30:16.350Z,0
2016-11-11T00:31:25.356Z,0
2016-11-11T00:32:34.366Z,0
2016-11-11T00:33:43.204Z,0
2016-11-11T00:34:52.504Z,0
2016-11-11T00:36:01.533Z,0
2016-11-11T00:37:10.534Z,0
2016-11-11T00:38:20.138Z,0
2016-11-11T00:39:29.233Z,0
2016-11-11T00:40:37.922Z,0
2016-11-11T00:41:46.915Z,0
2016-11-11T00:42:55.916Z,0
2016-11-11T00:44:05.221Z,0
2016-11-11T00:45:13.910Z,0
2016-11-11T00:46:22.594Z,0
2016-11-11T00:47:31.281Z,0
2016-11-11T00:48:40.276Z,0
2016-11-11T00:49:48.955Z,0
2016-11-11T00:50:58.416Z,0
2016-11-11T00:52:07.726Z,0
2016-11-11T00:53:16.728Z,0
2016-11-11T00:54:25.727Z,0
2016-11-11T00:55:34.716Z,0
2016-11-11T00:56:43.406Z,0
2016-11-11T00:57:52.095Z,0
2016-11-11T00:59:01.097Z,0
2016-11-11T01:00:10.101Z,0
2016-11-11T01:01:19.105Z,0
2016-11-11T01:02:28.404Z,0
2016-11-11T01:03:37.399Z,0
2016-11-11T01:04:46.395Z,0
2016-11-11T01:05:55.410Z,0
2016-11-11T01:07:04.405Z,0
2016-11-11T01:08:14.024Z,0
2016-11-11T01:09:23.313Z,0
2016-11-11T01:10:32.632Z,0
2016-11-11T01:11:41.936Z,0
2016-11-11T01:12:50.628Z,0
2016-11-11T01:14:00.086Z,0
2016-11-11T01:15:09.099Z,0
2016-11-11T01:16:18.710Z,0
2016-11-11T01:17:28.007Z,0
2016-11-11T01:18:37.000Z,0
2016-11-11T01:19:45.833Z,0
2016-11-11T01:20:54.560Z,0
2016-11-11T01:22:04.168Z,0
2016-11-11T01:23:13.472Z,0
2016-11-11T01:24:22.154Z,0
2016-11-11T01:25:30.982Z,0
2016-11-11T01:26:39.973Z,0
2016-11-11T01:27:48.980Z,0
2016-11-11T01:31:34.177Z,0
2016-11-11T01:32:43.497Z,0
2016-11-11T01:33:52.494Z,0
2016-11-11T01:35:01.190Z,0
2016-11-11T01:36:09.881Z,0
2016-11-11T01:37:18.981Z,0
2016-11-11T01:38:27.978Z,0
2016-11-11T01:39:36.662Z,0
2016-11-11T01:40:45.972Z,0
2016-11-11T01:41:54.987Z,0
2016-11-11T01:43:03.975Z,0
2016-11-11T01:44:13.273Z,0
2016-11-11T01:45:21.957Z,0
2016-11-11T01:46:31.566Z,0
2016-11-11T01:47:40.891Z,0
2016-11-11T01:48:49.573Z,0
2016-11-11T01:49:58.568Z,0
2016-11-11T01:51:07.257Z,0
2016-11-11T01:52:15.943Z,0
2016-11-11T01:53:24.943Z,0
2016-11-11T01:54:33.618Z,0
2016-11-11T01:55:42.918Z,0
2016-11-11T01:56:51.602Z,0
2016-11-11T01:58:00.285Z,0
2016-11-11T01:59:09.278Z,0
2016-11-11T02:00:17.967Z,0
2016-11-11T02:01:26.956Z,0
2016-11-11T02:02:35.648Z,0
2016-11-11T02:03:45.251Z,0
2016-11-11T02:04:53.934Z,0
2016-11-11T02:06:02.914Z,0
2016-11-11T02:07:12.228Z,0
2016-11-11T02:08:21.585Z,0
2016-11-11T02:09:30.888Z,0
2016-11-11T02:10:39.560Z,0
2016-11-11T02:11:49.008Z,0
2016-11-11T02:12:57.998Z,0
2016-11-11T02:14:06.699Z,0
2016-11-11T02:15:15.701Z,0
2016-11-11T02:16:24.757Z,0
2016-11-11T02:17:34.083Z,0
2016-11-11T02:18:42.788Z,0
2016-11-11T02:19:52.096Z,0
2016-11-11T02:21:00.781Z,0
2016-11-11T02:22:09.479Z,0
2016-11-11T02:23:18.613Z,0
2016-11-11T02:24:27.620Z,0
2016-11-11T02:25:36.616Z,0
2016-11-11T02:26:45.635Z,0
2016-11-11T02:27:54.642Z,0
2016-11-11T02:29:04.249Z,0
2016-11-11T02:30:12.967Z,0
2016-11-11T02:31:21.653Z,0
2016-11-11T02:32:30.956Z,0
2016-11-11T02:33:39.647Z,0
2016-11-11T02:34:48.937Z,0
2016-11-11T02:35:57.925Z,0
2016-11-11T02:37:07.239Z,0
2016-11-11T02:38:16.236Z,0
2016-11-11T02:39:25.833Z,0
2016-11-11T02:40:35.129Z,0
2016-11-11T02:41:44.740Z,0
2016-11-11T02:42:53.415Z,0
2016-11-11T02:44:02.419Z,0
2016-11-11T02:45:11.406Z,0
2016-11-11T02:46:20.715Z,0
2016-11-11T02:47:29.458Z,0
2016-11-11T02:48:38.135Z,0
2016-11-11T02:49:47.131Z,0
2016-11-11T02:50:56.116Z,0
2016-11-11T02:52:05.416Z,0
2016-11-11T02:53:14.736Z,0
2016-11-11T02:54:23.718Z,0
2016-11-11T02:55:32.406Z,0
2016-11-11T02:56:41.085Z,0
2016-11-11T02:57:49.783Z,0
2016-11-11T02:58:58.771Z,0
2016-11-11T03:00:07.780Z,0
2016-11-11T03:01:16.780Z,0
2016-11-11T03:02:25.471Z,0
2016-11-11T03:03:34.159Z,0
2016-11-11T03:04:43.132Z,0
2016-11-11T03:05:52.440Z,0
2016-11-11T03:07:01.739Z,0
2016-11-11T03:08:10.450Z,0
2016-11-11T03:09:19.531Z,0
2016-11-11T03:10:28.519Z,0
2016-11-11T03:11:37.245Z,0
2016-11-11T03:12:45.926Z,0
2016-11-11T03:13:55.228Z,0
2016-11-11T03:15:04.071Z,0
2016-11-11T03:16:13.051Z,0
2016-11-11T03:17:22.068Z,0
2016-11-11T03:18:30.758Z,0
2016-11-11T03:19:40.061Z,0
2016-11-11T03:20:49.091Z,0
2016-11-11T03:21:57.808Z,0
2016-11-11T03:23:06.812Z,0
2016-11-11T03:24:15.501Z,0
2016-11-11T03:25:24.502Z,0
2016-11-11T03:26:33.188Z,0
2016-11-11T03:27:41.880Z,0
2016-11-11T03:28:51.201Z,0
2016-11-11T03:30:00.203Z,0
2016-11-11T03:31:09.197Z,0
2016-11-11T03:32:17.988Z,0
2016-11-11T03:33:26.678Z,0
2016-11-11T03:34:35.435Z,0
2016-11-11T03:35:44.775Z,0
2016-11-11T03:36:53.777Z,0
2016-11-11T03:38:02.773Z,0
2016-11-11T03:39:11.760Z,0
2016-11-11T03:40:21.053Z,0
2016-11-11T03:41:29.743Z,0
2016-11-11T03:42:39.053Z,0
2016-11-11T03:43:47.754Z,0
2016-11-11T03:44:56.753Z,0
2016-11-11T03:46:05.447Z,0
2016-11-11T03:47:14.774Z,0
2016-11-11T03:48:23.772Z,0
2016-11-11T03:49:33.073Z,0
2016-11-11T03:50:42.377Z,0
2016-11-11T03:51:51.373Z,0
2016-11-11T03:53:00.063Z,0
2016-11-11T03:54:08.752Z,0
2016-11-11T03:55:17.782Z,0
2016-11-11T03:56:27.448Z,0
2016-11-11T03:57:37.079Z,0
2016-11-11T03:58:46.079Z,0
2016-11-11T03:59:54.765Z,0
2016-11-11T04:01:04.387Z,0
2016-11-11T04:02:13.378Z,0
2016-11-11T04:03:22.371Z,0
2016-11-11T04:04:31.362Z,0
2016-11-11T04:05:40.348Z,0
2016-11-11T04:06:49.490Z,0
2016-11-11T04:07:58.793Z,0
2016-11-11T04:09:07.790Z,0
2016-11-11T04:10:17.122Z,0
2016-11-11T04:11:26.427Z,0
2016-11-11T04:12:35.440Z,0
2016-11-11T04:13:44.441Z,0
2016-11-11T04:14:53.451Z,0
2016-11-11T04:16:02.462Z,0
2016-11-11T04:17:11.468Z,0
2016-11-11T04:18:20.609Z,0
2016-11-11T04:19:29.606Z,0
2016-11-11T04:20:38.296Z,0
2016-11-11T04:21:47.603Z,0
2016-11-11T04:22:56.646Z,0
2016-11-11T04:24:05.741Z,0
2016-11-11T04:25:14.436Z,0
2016-11-11T04:26:24.056Z,0
2016-11-11T04:27:32.738Z,0
2016-11-11T04:28:41.423Z,0
2016-11-11T04:29:50.422Z,0
2016-11-11T04:31:00.040Z,0
2016-11-11T04:32:09.374Z,0
2016-11-11T04:33:18.067Z,0
2016-11-11T04:34:27.059Z,0
2016-11-11T04:35:35.898Z,0
2016-11-11T04:36:45.192Z,0
2016-11-11T04:37:53.873Z,0
2016-11-11T04:39:02.863Z,0
2016-11-11T04:40:12.168Z,0
2016-11-11T04:41:20.861Z,0
2016-11-11T04:42:30.174Z,0
2016-11-11T04:43:39.485Z,0
2016-11-11T04:44:48.160Z,0
2016-11-11T04:45:56.849Z,0
2016-11-11T04:47:06.457Z,0
2016-11-11T04:48:15.138Z,0
2016-11-11T04:49:23.821Z,0
2016-11-11T04:50:32.802Z,0
2016-11-11T04:51:41.800Z,0
2016-11-11T04:52:50.834Z,0
2016-11-11T04:53:59.836Z,0
2016-11-11T04:55:08.828Z,0
2016-11-11T04:56:17.506Z,0
2016-11-11T04:57:26.217Z,0
2016-11-11T04:58:35.067Z,0
2016-11-11T04:59:44.683Z,0
2016-11-11T05:00:53.682Z,0
2016-11-11T05:02:02.718Z,0
2016-11-11T05:03:12.038Z,0
2016-11-11T05:04:21.751Z,0
2016-11-11T05:05:30.739Z,0
2016-11-11T05:06:39.425Z,0
2016-11-11T05:07:49.034Z,0
2016-11-11T05:08:58.024Z,0
2016-11-11T05:10:06.817Z,0
2016-11-11T05:11:15.815Z,0
2016-11-11T05:12:24.807Z,0
2016-11-11T05:13:33.790Z,0
2016-11-11T05:14:42.786Z,0
2016-11-11T05:15:51.928Z,0
2016-11-11T05:17:00.971Z,0
2016-11-11T05:18:09.649Z,0
2016-11-11T05:19:18.354Z,0
2016-11-11T05:20:27.958Z,0
2016-11-11T05:21:37.563Z,0
2016-11-11T05:22:46.863Z,0
2016-11-11T05:23:56.162Z,0
2016-11-11T05:25:04.874Z,0
2016-11-11T05:26:13.869Z,0
2016-11-11T05:27:22.554Z,0
2016-11-11T05:28:31.848Z,0
2016-11-11T05:29:40.531Z,0
2016-11-11T05:30:49.829Z,0
2016-11-11T05:31:59.120Z,0
2016-11-11T05:33:08.419Z,0
2016-11-11T05:34:17.429Z,0
2016-11-11T05:35:26.108Z,0
2016-11-11T05:36:34.803Z,0
2016-11-11T05:37:43.798Z,0
2016-11-11T05:38:52.480Z,0
2016-11-11T05:40:01.466Z,0
2016-11-11T05:41:10.458Z,0
2016-11-11T05:42:19.450Z,0
2016-11-11T05:43:28.133Z,0
2016-11-11T05:44:37.124Z,0
2016-11-11T05:45:46.744Z,0
2016-11-11T05:46:55.446Z,0
2016-11-11T05:48:04.440Z,0
2016-11-11T05:49:13.133Z,0
2016-11-11T05:50:21.852Z,0
2016-11-11T05:51:30.858Z,0
2016-11-11T05:52:39.549Z,0
2016-11-11T05:53:48.857Z,0
2016-11-11T05:54:57.852Z,0
2016-11-11T05:56:06.936Z,0
2016-11-11T05:57:16.557Z,0
2016-11-11T05:58:25.549Z,0
2016-11-11T05:59:34.225Z,0
2016-11-11T06:00:43.520Z,0
2016-11-11T06:01:53.137Z,0
2016-11-11T06:03:02.124Z,0
2016-11-11T06:04:11.516Z,0
2016-11-11T06:05:21.208Z,0
2016-11-11T06:06:30.624Z,0
2016-11-11T06:07:40.168Z,0
2016-11-11T06:08:49.317Z,0
2016-11-11T06:09:58.941Z,0
2016-11-11T06:11:09.013Z,0
2016-11-11T06:12:18.474Z,0
2016-11-11T06:13:27.631Z,0
2016-11-11T06:14:36.694Z,0
2016-11-11T06:15:46.408Z,0
2016-11-11T06:16:56.209Z,0
2016-11-11T06:18:05.607Z,0
2016-11-11T06:19:14.990Z,0
2016-11-11T06:20:24.149Z,0
2016-11-11T06:21:34.003Z,0
2016-11-11T06:22:43.366Z,0
2016-11-11T06:23:52.525Z,0
2016-11-11T06:25:01.688Z,0
2016-11-11T06:26:11.080Z,0
2016-11-11T06:27:20.500Z,0
2016-11-11T06:28:29.643Z,0
2016-11-11T06:29:39.264Z,0
2016-11-11T06:30:48.416Z,0
2016-11-11T06:31:57.712Z,0
2016-11-11T06:33:06.970Z,0
2016-11-11T06:34:16.365Z,0
2016-11-11T06:35:25.299Z,0
2016-11-11T06:36:34.863Z,0
2016-11-11T06:37:44.092Z,0
2016-11-11T06:38:53.337Z,0
2016-11-11T06:40:02.416Z,0
2016-11-11T06:41:12.497Z,0
2016-11-11T06:42:22.065Z,0
2016-11-11T06:43:32.243Z,0
2016-11-11T06:44:41.628Z,0
2016-11-11T06:45:51.107Z,0
2016-11-11T06:47:00.421Z,0
2016-11-11T06:48:10.747Z,0
2016-11-11T06:49:20.123Z,0
2016-11-11T06:50:29.415Z,0
2016-11-11T06:51:38.104Z,0
2016-11-11T06:52:47.168Z,0
2016-11-11T06:53:56.922Z,0
2016-11-11T06:55:06.461Z,0
2016-11-11T06:56:16.461Z,0
2016-11-11T06:57:25.789Z,0
2016-11-11T06:58:35.306Z,0
2016-11-11T06:59:45.579Z,0
2016-11-11T07:00:54.455Z,0
2016-11-11T07:02:03.782Z,0
2016-11-11T07:03:13.396Z,0
2016-11-11T07:04:22.082Z,0
2016-11-11T07:05:31.076Z,0
2016-11-11T07:06:40.068Z,0
2016-11-11T07:07:49.053Z,0
2016-11-11T07:08:57.746Z,0
2016-11-11T07:10:06.440Z,4
2016-11-11T07:11:15.424Z,4
2016-11-11T07:12:25.035Z,8
2016-11-11T07:13:34.340Z,8
2016-11-11T07:14:43.329Z,8
2016-11-11T07:15:52.625Z,8
2016-11-11T07:17:01.760Z,4
2016-11-11T07:18:10.750Z,8
2016-11-11T07:19:19.439Z,4
2016-11-11T07:20:28.188Z,4
2016-11-11T07:21:37.220Z,8
2016-11-11T07:22:46.252Z,8
2016-11-11T07:23:54.946Z,8
2016-11-11T07:25:03.964Z,8
2016-11-11T07:26:12.962Z,8
2016-11-11T07:27:21.655Z,8
2016-11-11T07:28:30.657Z,8
2016-11-11T07:29:39.654Z,8
2016-11-11T07:30:48.659Z,8
2016-11-11T07:31:57.667Z,8
2016-11-11T07:33:06.699Z,8
2016-11-11T07:34:15.807Z,4
2016-11-11T07:35:24.834Z,8
2016-11-11T07:36:33.839Z,8
2016-11-11T07:37:43.163Z,8
2016-11-11T07:38:52.158Z,8
2016-11-11T07:40:01.155Z,4
2016-11-11T07:41:10.465Z,8
2016-11-11T07:42:19.770Z,8
2016-11-11T07:43:29.380Z,8
2016-11-11T07:44:38.373Z,8
2016-11-11T07:45:47.362Z,8
2016-11-11T07:46:56.392Z,8
2016-11-11T07:48:06.046Z,8
2016-11-11T07:49:15.349Z,8
2016-11-11T07:50:24.024Z,8
2016-11-11T07:51:33.641Z,12
2016-11-11T07:52:42.328Z,12
2016-11-11T07:53:51.633Z,8
2016-11-11T07:55:00.942Z,12
2016-11-11T07:56:09.938Z,8
2016-11-11T07:57:19.239Z,4
2016-11-11T07:58:27.926Z,4
2016-11-11T07:59:37.234Z,8
2016-11-11T08:00:46.536Z,4
2016-11-11T08:01:55.227Z,4
2016-11-11T08:03:03.921Z,8
2016-11-11T08:04:12.616Z,8
2016-11-11T08:05:21.927Z,8
2016-11-11T08:06:31.223Z,8
2016-11-11T08:07:40.521Z,4
2016-11-11T08:08:49.838Z,8
2016-11-11T08:09:59.138Z,8
2016-11-11T08:11:08.135Z,8
2016-11-11T08:12:17.125Z,8
2016-11-11T08:13:26.428Z,12
2016-11-11T08:14:35.426Z,12
2016-11-11T08:15:44.430Z,12
2016-11-11T08:16:53.433Z,12
2016-11-11T08:18:02.444Z,12
2016-11-11T08:19:11.451Z,16
2016-11-11T08:20:20.249Z,16
2016-11-11T08:21:28.965Z,16
2016-11-11T08:22:37.661Z,20
2016-11-11T08:23:46.355Z,12
2016-11-11T08:24:55.364Z,12
2016-11-11T08:26:04.375Z,16
2016-11-11T08:27:13.387Z,12
2016-11-11T08:28:22.087Z,12
2016-11-11T08:29:30.784Z,16
2016-11-11T08:30:39.781Z,16
2016-11-11T08:31:48.882Z,16
2016-11-11T08:32:58.197Z,20
2016-11-11T08:34:06.898Z,20
2016-11-11T08:35:15.902Z,20
2016-11-11T08:36:24.578Z,28
2016-11-11T08:37:33.891Z,24
2016-11-11T08:38:42.900Z,24
2016-11-11T08:39:51.604Z,20
2016-11-11T08:41:00.309Z,20
2016-11-11T08:42:09.302Z,20
2016-11-11T08:43:18.710Z,20
2016-11-11T08:44:27.724Z,24
2016-11-11T08:45:36.735Z,24
2016-11-11T08:46:46.353Z,28
2016-11-11T08:47:55.383Z,24
2016-11-11T08:49:04.378Z,24
2016-11-11T08:50:13.404Z,24
2016-11-11T08:51:22.111Z,24
2016-11-11T08:52:31.425Z,20
2016-11-11T08:53:40.135Z,24
2016-11-11T08:54:49.508Z,20
2016-11-11T08:55:58.825Z,20
2016-11-11T08:57:07.542Z,20
2016-11-11T08:58:16.556Z,20
2016-11-11T08:59:25.925Z,20
2016-11-11T09:00:35.352Z,20
2016-11-11T09:01:44.337Z,24
2016-11-11T09:02:53.338Z,20
2016-11-11T09:04:02.338Z,20
2016-11-11T09:05:11.343Z,24
2016-11-11T09:06:20.453Z,24
2016-11-11T09:07:29.522Z,28
2016-11-11T09:08:38.511Z,32
2016-11-11T09:09:47.542Z,32
2016-11-11T09:10:57.469Z,48
2016-11-11T09:12:07.428Z,44
2016-11-11T09:13:16.419Z,44
2016-11-11T09:14:25.108Z,44
2016-11-11T09:15:34.420Z,40
2016-11-11T09:16:43.150Z,52
2016-11-11T09:17:52.155Z,56
2016-11-11T09:19:01.762Z,36
2016-11-11T09:20:11.067Z,24
2016-11-11T09:21:20.091Z,32
2016-11-11T09:22:29.405Z,28
2016-11-11T09:23:38.191Z,28
2016-11-11T09:24:47.800Z,28
2016-11-11T09:25:57.098Z,28
2016-11-11T09:27:05.847Z,32
2016-11-11T09:28:14.871Z,28
2016-11-11T09:29:24.167Z,24
2016-11-11T09:30:33.190Z,28
2016-11-11T09:31:41.902Z,28
2016-11-11T09:32:50.591Z,32
2016-11-11T09:33:59.609Z,28
2016-11-11T09:35:09.546Z,32
2016-11-11T09:36:18.853Z,28
2016-11-11T09:37:27.851Z,28
2016-11-11T09:43:41.301Z,28
2016-11-11T09:47:23.276Z,32
2016-11-11T09:48:32.288Z,28
2016-11-11T09:49:41.425Z,32
2016-11-11T09:50:50.122Z,36
2016-11-11T09:51:58.830Z,40
2016-11-11T09:53:07.831Z,40
2016-11-11T09:54:16.848Z,48
2016-11-11T09:55:26.260Z,60
2016-11-11T09:56:35.878Z,32
2016-11-11T09:57:44.576Z,36
2016-11-11T09:58:53.581Z,40
2016-11-11T10:00:03.203Z,40
2016-11-11T10:01:12.546Z,32
2016-11-11T10:02:21.868Z,28
2016-11-11T10:03:30.576Z,24
2016-11-11T10:04:39.281Z,24
2016-11-11T10:05:48.300Z,20
2016-11-11T10:06:57.644Z,20
2016-11-11T10:08:06.647Z,28
2016-11-11T10:09:16.273Z,28
2016-11-11T10:10:24.973Z,28
2016-11-11T10:11:33.991Z,28
2016-11-11T10:12:42.988Z,32
2016-11-11T10:13:52.316Z,28
2016-11-11T10:15:01.316Z,24
2016-11-11T10:16:10.031Z,24
2016-11-11T10:17:19.678Z,28
2016-11-11T10:18:28.822Z,40
2016-11-11T10:19:37.832Z,40
2016-11-11T10:20:46.848Z,32
2016-11-11T10:21:55.863Z,24
2016-11-11T10:23:05.192Z,28
2016-11-11T10:24:14.202Z,24
2016-11-11T10:25:23.235Z,20
2016-11-11T10:26:32.586Z,28
2016-11-11T10:27:41.278Z,28
2016-11-11T10:28:50.598Z,36
2016-11-11T10:29:59.307Z,36
2016-11-11T10:31:08.610Z,24
2016-11-11T10:32:17.919Z,24
2016-11-11T10:33:26.916Z,36
2016-11-11T10:34:35.927Z,36
2016-11-11T10:35:44.629Z,36
2016-11-11T10:36:53.959Z,28
2016-11-11T10:38:03.599Z,20
2016-11-11T10:39:12.932Z,24
2016-11-11T10:40:21.637Z,36
2016-11-11T10:41:30.757Z,28
2016-11-11T10:42:39.759Z,40
2016-11-11T10:43:49.370Z,44
2016-11-11T10:44:58.056Z,48
2016-11-11T10:46:07.372Z,56
2016-11-11T10:47:16.373Z,64
2016-11-11T10:48:25.373Z,56
2016-11-11T10:49:34.415Z,36
2016-11-11T10:50:43.714Z,28
2016-11-11T10:51:52.448Z,24
2016-11-11T10:53:01.453Z,24
2016-11-11T10:54:10.459Z,24
2016-11-11T10:55:19.476Z,20
2016-11-11T10:56:28.478Z,24
2016-11-11T10:57:37.483Z,32
2016-11-11T10:58:47.096Z,32
2016-11-11T10:59:56.390Z,36
2016-11-11T11:01:05.099Z,36
2016-11-11T11:02:14.104Z,28
2016-11-11T11:03:23.105Z,28
2016-11-11T11:04:31.852Z,28
2016-11-11T11:05:40.855Z,24
2016-11-11T11:06:50.169Z,24
2016-11-11T11:07:58.870Z,24
2016-11-11T11:09:08.506Z,24
2016-11-11T11:10:18.427Z,24
2016-11-11T11:11:28.048Z,24
2016-11-11T11:12:37.355Z,28
2016-11-11T11:13:46.965Z,28
2016-11-11T11:14:55.960Z,28
2016-11-11T11:16:05.923Z,28
2016-11-11T11:17:14.923Z,28
2016-11-11T11:18:23.630Z,28
2016-11-11T11:19:32.671Z,32
2016-11-11T11:20:41.690Z,32
2016-11-11T11:21:50.397Z,32
2016-11-11T11:22:59.398Z,28
2016-11-11T11:24:08.706Z,28
2016-11-11T11:25:17.409Z,28
2016-11-11T11:26:27.022Z,28
2016-11-11T11:27:35.725Z,28
2016-11-11T11:28:44.732Z,28
2016-11-11T11:29:54.662Z,24
2016-11-11T11:31:03.363Z,28
2016-11-11T11:32:12.060Z,24
2016-11-11T11:33:20.789Z,24
2016-11-11T11:34:29.807Z,28
2016-11-11T11:35:38.810Z,24
2016-11-11T11:36:47.822Z,28
2016-11-11T11:37:57.762Z,24
2016-11-11T11:39:07.067Z,28
2016-11-11T11:40:16.074Z,28
2016-11-11T11:41:25.073Z,24
2016-11-11T11:42:34.057Z,24
2016-11-11T11:43:43.077Z,20
2016-11-11T11:44:52.423Z,24
2016-11-11T11:46:01.448Z,28
2016-11-11T11:47:10.768Z,24
2016-11-11T11:48:20.085Z,24
2016-11-11T11:49:29.695Z,24
2016-11-11T11:50:38.802Z,24
2016-11-11T11:51:47.816Z,24
2016-11-11T11:52:57.125Z,24
2016-11-11T11:54:06.117Z,24
2016-11-11T11:55:15.433Z,28
2016-11-11T11:56:24.541Z,24
2016-11-11T11:57:33.231Z,20
2016-11-11T11:58:41.925Z,20
2016-11-11T11:59:50.938Z,24
2016-11-11T12:00:59.668Z,20
2016-11-11T12:02:09.311Z,24
2016-11-11T12:03:18.043Z,28
2016-11-11T12:04:27.085Z,28
2016-11-11T12:05:36.103Z,24
2016-11-11T12:06:44.826Z,24
2016-11-11T12:07:54.710Z,20
2016-11-11T12:09:03.762Z,20
2016-11-11T12:10:13.085Z,24
2016-11-11T12:11:22.083Z,24
2016-11-11T12:12:31.410Z,20
2016-11-11T12:13:40.867Z,20
2016-11-11T12:14:49.915Z,20
2016-11-11T12:15:58.626Z,16
2016-11-11T12:17:08.365Z,20
2016-11-11T12:18:17.064Z,16
2016-11-11T12:19:25.865Z,16
2016-11-11T12:20:34.573Z,20
2016-11-11T12:21:43.591Z,16
2016-11-11T12:22:53.215Z,20
2016-11-11T12:24:02.563Z,16
2016-11-11T12:25:11.286Z,16
2016-11-11T12:26:20.932Z,16
2016-11-11T12:27:29.971Z,16
2016-11-11T12:28:38.997Z,16
2016-11-11T12:29:48.016Z,20
2016-11-11T12:30:57.061Z,16
2016-11-11T12:32:06.402Z,20
2016-11-11T12:33:16.013Z,20
2016-11-11T12:34:24.719Z,20
2016-11-11T12:35:33.416Z,20
2016-11-11T12:36:42.523Z,20
2016-11-11T12:37:51.522Z,24
2016-11-11T12:39:00.230Z,20
2016-11-11T12:40:09.265Z,20
2016-11-11T12:41:18.280Z,20
2016-11-11T12:42:27.306Z,20
2016-11-11T12:43:36.009Z,24
2016-11-11T12:44:45.320Z,20
2016-11-11T12:45:54.339Z,20
2016-11-11T12:47:03.973Z,20
2016-11-11T12:48:12.762Z,20
2016-11-11T12:49:21.461Z,20
2016-11-11T12:50:31.086Z,20
2016-11-11T12:51:39.815Z,20
2016-11-11T12:52:48.862Z,24
2016-11-11T12:53:58.036Z,20
2016-11-11T12:55:06.745Z,20
2016-11-11T12:56:15.754Z,24
2016-11-11T12:57:24.446Z,24
2016-11-11T12:58:34.070Z,24
2016-11-11T12:59:43.088Z,20
2016-11-11T13:00:52.083Z,20
2016-11-11T13:02:01.087Z,20
2016-11-11T13:03:10.098Z,20
2016-11-11T13:04:19.726Z,24
2016-11-11T13:05:29.055Z,24
2016-11-11T13:06:38.057Z,24
2016-11-11T13:07:47.380Z,28
2016-11-11T13:08:56.380Z,32
2016-11-11T13:10:05.071Z,28
2016-11-11T13:11:13.758Z,28
2016-11-11T13:12:23.066Z,28
2016-11-11T13:13:31.783Z,24
2016-11-11T13:14:40.794Z,28
2016-11-11T13:15:50.426Z,28
2016-11-11T13:16:59.442Z,28
2016-11-11T13:18:08.460Z,24
2016-11-11T13:19:17.475Z,28
2016-11-11T13:20:26.801Z,28
2016-11-11T13:21:35.814Z,28
2016-11-11T13:22:45.455Z,28
2016-11-11T13:23:54.799Z,32
2016-11-11T13:25:03.510Z,28
2016-11-11T13:26:12.224Z,28
2016-11-11T13:27:21.837Z,28
2016-11-11T13:28:31.200Z,24
2016-11-11T13:29:40.558Z,28
2016-11-11T13:30:49.262Z,28
2016-11-11T13:31:57.985Z,20
2016-11-11T13:33:07.012Z,20
2016-11-11T13:34:16.329Z,20
2016-11-11T13:35:25.349Z,28
2016-11-11T13:36:34.042Z,20
2016-11-11T13:37:43.368Z,20
2016-11-11T13:38:52.412Z,20
2016-11-11T13:40:02.640Z,20
2016-11-11T13:41:11.653Z,20
2016-11-11T13:42:20.979Z,16
2016-11-11T13:43:30.013Z,16
2016-11-11T13:44:39.362Z,16
2016-11-11T13:45:48.201Z,16
2016-11-11T13:46:57.515Z,16
2016-11-11T13:48:06.244Z,20
2016-11-11T13:49:15.266Z,24
2016-11-11T13:50:23.967Z,28
2016-11-11T13:51:32.987Z,20
2016-11-11T13:52:42.294Z,16
2016-11-11T13:53:51.314Z,16
2016-11-11T13:55:00.637Z,16
2016-11-11T13:56:09.719Z,16
2016-11-11T13:57:18.738Z,16
2016-11-11T13:58:27.757Z,20
2016-11-11T13:59:36.445Z,20
2016-11-11T14:00:45.768Z,24
2016-11-11T14:01:54.777Z,20
2016-11-11T14:03:04.194Z,16
2016-11-11T14:04:13.212Z,16
2016-11-11T14:05:23.151Z,16
2016-11-11T14:06:32.149Z,16
2016-11-11T14:07:41.479Z,16
2016-11-11T14:08:50.608Z,16
2016-11-11T14:09:59.675Z,16
2016-11-11T14:11:08.672Z,20
2016-11-11T14:12:18.018Z,20
2016-11-11T14:13:27.338Z,12
2016-11-11T14:14:36.648Z,16
2016-11-11T14:15:45.561Z,12
2016-11-11T14:16:54.564Z,12
2016-11-11T14:18:03.584Z,12
2016-11-11T14:19:12.893Z,16
2016-11-11T14:20:22.516Z,12
2016-11-11T14:21:31.829Z,12
2016-11-11T14:22:40.580Z,12
2016-11-11T14:23:50.212Z,12
2016-11-11T14:24:59.229Z,12
2016-11-11T14:26:08.530Z,12
2016-11-11T14:27:17.530Z,8
2016-11-11T14:28:26.561Z,8
2016-11-11T14:29:36.186Z,8
2016-11-11T14:30:45.192Z,8
2016-11-11T14:31:54.868Z,8
2016-11-11T14:33:04.195Z,8
2016-11-11T14:34:12.909Z,8
2016-11-11T14:35:21.615Z,8
2016-11-11T14:36:30.632Z,8
2016-11-11T14:37:39.630Z,8
2016-11-11T14:38:48.320Z,12
2016-11-11T14:39:57.686Z,12
2016-11-11T14:41:06.701Z,12
2016-11-11T14:42:16.049Z,12
2016-11-11T14:43:25.456Z,8
2016-11-11T14:44:34.787Z,12
2016-11-11T14:45:43.795Z,12
2016-11-11T14:46:52.571Z,12
2016-11-11T14:48:01.899Z,12
2016-11-11T14:49:11.219Z,12
2016-11-11T14:50:20.531Z,12
2016-11-11T14:51:29.529Z,8
2016-11-11T14:52:38.520Z,12
2016-11-11T14:53:47.231Z,12
2016-11-11T14:57:29.215Z,12
2016-11-11T14:58:37.924Z,8
2016-11-11T14:59:46.620Z,12
2016-11-11T15:00:55.958Z,8
2016-11-11T15:02:04.984Z,8
2016-11-11T15:03:13.996Z,8
2016-11-11T15:04:23.628Z,8
2016-11-11T15:05:32.636Z,8
2016-11-11T15:06:41.327Z,8
2016-11-11T15:07:50.008Z,8
2016-11-11T15:08:59.007Z,8
2016-11-11T15:10:08.329Z,4
2016-11-11T15:11:17.039Z,4
2016-11-11T15:12:25.793Z,4
2016-11-11T15:13:34.793Z,8
2016-11-11T15:14:44.509Z,8
2016-11-11T15:15:53.548Z,8
2016-11-11T15:17:02.242Z,8
2016-11-11T15:18:11.583Z,4
2016-11-11T15:19:20.891Z,4
2016-11-11T15:20:30.312Z,4
2016-11-11T15:21:39.628Z,4
2016-11-11T15:22:48.377Z,4
2016-11-11T15:23:57.407Z,4
2016-11-11T15:25:06.719Z,4
2016-11-11T15:26:16.078Z,4
2016-11-11T15:27:25.103Z,4
2016-11-11T15:28:34.095Z,4
2016-11-11T15:29:42.797Z,0
2016-11-11T15:30:51.504Z,0
2016-11-11T15:32:00.571Z,0
2016-11-11T15:33:09.870Z,0
2016-11-11T15:34:19.181Z,0
2016-11-11T15:35:27.884Z,0
2016-11-11T15:36:36.576Z,0
2016-11-11T15:37:45.591Z,0
2016-11-11T15:38:56.235Z,0
2016-11-11T15:40:04.979Z,0
2016-11-11T15:41:13.977Z,0
2016-11-11T15:42:23.044Z,0
2016-11-11T15:43:32.360Z,0
2016-11-11T15:44:41.055Z,0
2016-11-11T15:45:50.353Z,0
2016-11-11T15:46:59.048Z,0
2016-11-11T15:48:08.074Z,0
2016-11-11T15:49:17.114Z,0
2016-11-11T15:50:26.424Z,0
2016-11-11T15:51:35.128Z,0
2016-11-11T15:52:44.124Z,0
2016-11-11T15:53:53.146Z,0
2016-11-11T15:55:02.487Z,0
2016-11-11T15:56:11.486Z,0
2016-11-11T15:57:20.830Z,0
2016-11-11T15:58:29.911Z,0
2016-11-11T15:59:38.928Z,0
2016-11-11T16:00:47.968Z,0
2016-11-11T16:01:56.684Z,0
2016-11-11T16:03:05.680Z,0
2016-11-11T16:04:14.673Z,0
2016-11-11T16:05:24.287Z,0
2016-11-11T16:06:33.632Z,0
2016-11-11T16:07:42.943Z,0
2016-11-11T16:08:51.952Z,0
2016-11-11T16:10:01.278Z,0
2016-11-11T16:11:10.909Z,0
2016-11-11T16:12:20.233Z,0
2016-11-11T16:13:29.226Z,0
2016-11-11T16:14:37.909Z,0
2016-11-11T16:15:46.603Z,0
2016-11-11T16:16:55.619Z,0
2016-11-11T16:18:04.628Z,0
2016-11-11T16:19:13.326Z,0
2016-11-11T16:20:22.337Z,0
2016-11-11T16:21:31.027Z,0
2016-11-11T16:22:39.741Z,0
2016-11-11T16:23:48.469Z,0
2016-11-11T16:24:57.464Z,0
2016-11-11T16:26:06.460Z,0
2016-11-11T16:27:15.779Z,0
2016-11-11T16:28:25.084Z,0
2016-11-11T16:29:34.080Z,0
2016-11-11T16:30:43.415Z,0
2016-11-11T16:31:52.113Z,0
2016-11-11T16:33:01.125Z,0
2016-11-11T16:34:10.453Z,0
2016-11-11T16:35:19.446Z,0
2016-11-11T16:36:28.466Z,0
2016-11-11T16:37:37.154Z,0
2016-11-11T16:38:46.763Z,0
2016-11-11T16:39:55.769Z,0
2016-11-11T16:41:04.461Z,0
2016-11-11T16:42:13.465Z,0
2016-11-11T16:43:22.793Z,0
2016-11-11T16:44:31.790Z,0
2016-11-11T16:45:40.496Z,0
2016-11-11T16:46:49.813Z,0
2016-11-11T16:47:58.522Z,0
2016-11-11T16:49:07.539Z,0
2016-11-11T16:50:16.264Z,0
2016-11-11T16:51:25.576Z,0
2016-11-11T16:52:35.495Z,0
2016-11-11T16:53:44.511Z,0
2016-11-11T16:54:53.247Z,0
2016-11-11T16:56:02.573Z,0
2016-11-11T16:57:11.571Z,0
2016-11-11T16:58:21.326Z,0
2016-11-11T16:59:30.638Z,0